Alba Lulia, Romania

7:21 AM EEST on August 23, 2017 (GMT +0300)
Miercurea Sibiului | | Change Station

Elev 981 ft 45.89 °N, 23.80 °E | Updated 31 seconds ago

Partly Cloudy
Partly Cloudy
50.3 °F
Feels Like 50.3 °F
N
0.0
Wind Variable Wind from North
Gusts 0.0 mph

Today
High -- | Low -- °F
--% Chance of Precip.
Yesterday
High -- | Low -- °F
Precip. -- in
Pressure 30.01 in
Visibility 6.2 miles
Clouds Scattered Clouds 5000 ft
Mostly Cloudy 8000 ft
Dew Point 50 °F
Humidity 97%
Rainfall 0.00 in
Snow Depth Not available.
6:35 AM 8:20 PM
Waxing Crescent, 3% visible
METAR LRCT 230400Z 33008KT 9999 SCT050 BKN080 13/10 Q1016 BLU BLU
Pressure 30.01 in
Visibility 6.2 miles
Clouds Scattered Clouds 5000 ft
Mostly Cloudy 8000 ft
Dew Point 50 °F
Humidity 97%
Rainfall 0.00 in
Snow Depth Not available.
6:35 AM 8:20 PM
Waxing Crescent, 3% visible
METAR LRCT 230400Z 33008KT 9999 SCT050 BKN080 13/10 Q1016 BLU BLU

Get Severe Weather Alerts

Thanks for signing up!

Be on the lookout for a verification email in your inbox.

You'll start receiving the daily forecast at 6 AM.

×

10-Day Weather Forecast

×

Almanac

Astronomy

Aug. 23, 2017 Rise Set
Actual Time
Civil Twilight
Nautical Twilight
Astronomical Twilight
Moon
Length of Visible Light
Length of Day
Tomorrow will be .
, % of the Moon is Illuminated

Today's Extremes

Country Highs Country Lows

Community

WunderPhotos

Category 6

Welcome to Category 6. This is the collective home for Weather Underground's featured writeups by Dr. Jeff Masters (right), Bob Henson (left), Chris Burt, and other regular contributors.

Nearby

Air Quality

  Air Quality AQ Index Pollutant
Not available.

Snow Depth

Station Depth Elevation

Earthquake Activity

City Distance Mag. Time & Date
Minimum magnitude displayed is 2.5.

Coastal Water Temperatures

Place Temperature

Stations

Nearby Weather Stations

Station Location Temp. Windchill Dew Point Humidity Wind Precip. Elev Updated Type